sensor_id;sensor_type;location;lat;lon;timestamp;pressure;altitude;pressure_sealevel;temperature;humidity
19777;BME280;10047;42.490;26.012;2022-12-07T00:01:16;100051.66;;;8.88;100.00
19777;BME280;10047;42.490;26.012;2022-12-07T00:03:44;100048.19;;;8.93;100.00
19777;BME280;10047;42.490;26.012;2022-12-07T00:06:12;100018.13;;;8.75;100.00
19777;BME280;10047;42.490;26.012;2022-12-07T00:08:38;100007.09;;;8.76;100.00
19777;BME280;10047;42.490;26.012;2022-12-07T00:11:05;100079.84;;;9.14;100.00
19777;BME280;10047;42.490;26.012;2022-12-07T00:13:32;100065.66;;;9.05;100.00
19777;BME280;10047;42.490;26.012;2022-12-07T00:16:10;99995.59;;;8.61;100.00
19777;BME280;10047;42.490;26.012;2022-12-07T00:18:36;100058.44;;;8.86;100.00
19777;BME280;10047;42.490;26.012;2022-12-07T00:21:06;100085.03;;;9.08;100.00
19777;BME280;10047;42.490;26.012;2022-12-07T00:23:33;100009.13;;;8.60;100.00
19777;BME280;10047;42.490;26.012;2022-12-07T00:26:07;100049.06;;;8.91;100.00
19777;BME280;10047;42.490;26.012;2022-12-07T00:28:33;100005.66;;;8.64;100.00
19777;BME280;10047;42.490;26.012;2022-12-07T00:31:10;100095.16;;;9.09;100.00
19777;BME280;10047;42.490;26.012;2022-12-07T00:33:36;100042.47;;;8.82;100.00
19777;BME280;10047;42.490;26.012;2022-12-07T00:36:06;100076.63;;;9.06;100.00
19777;BME280;10047;42.490;26.012;2022-12-07T00:38:34;100000.53;;;8.67;100.00
19777;BME280;10047;42.490;26.012;2022-12-07T00:41:02;100023.19;;;8.75;100.00
19777;BME280;10047;42.490;26.012;2022-12-07T00:43:28;99998.06;;;8.64;100.00
19777;BME280;10047;42.490;26.012;2022-12-07T00:45:54;100078.31;;;9.07;100.00
19777;BME280;10047;42.490;26.012;2022-12-07T00:48:21;100005.69;;;8.63;100.00
19777;BME280;10047;42.490;26.012;2022-12-07T00:50:46;99988.31;;;8.45;100.00
19777;BME280;10047;42.490;26.012;2022-12-07T00:53:12;99990.84;;;8.45;100.00
19777;BME280;10047;42.490;26.012;2022-12-07T00:55:38;100091.13;;;9.01;100.00
19777;BME280;10047;42.490;26.012;2022-12-07T00:58:03;100070.06;;;8.96;100.00
19777;BME280;10047;42.490;26.012;2022-12-07T01:00:29;100076.78;;;8.98;100.00
19777;BME280;10047;42.490;26.012;2022-12-07T01:02:54;100022.59;;;8.62;100.00
19777;BME280;10047;42.490;26.012;2022-12-07T01:05:20;99991.56;;;8.50;100.00
19777;BME280;10047;42.490;26.012;2022-12-07T01:07:45;100067.53;;;8.96;100.00
19777;BME280;10047;42.490;26.012;2022-12-07T01:10:12;100037.53;;;8.76;100.00
19777;BME280;10047;42.490;26.012;2022-12-07T01:12:38;100045.09;;;8.77;100.00
19777;BME280;10047;42.490;26.012;2022-12-07T01:15:04;99977.50;;;8.37;100.00
19777;BME280;10047;42.490;26.012;2022-12-07T01:17:30;99975.25;;;8.20;100.00
19777;BME280;10047;42.490;26.012;2022-12-07T01:19:55;99952.44;;;8.20;100.00
19777;BME280;10047;42.490;26.012;2022-12-07T01:22:20;100030.19;;;8.62;100.00
19777;BME280;10047;42.490;26.012;2022-12-07T01:24:46;100003.28;;;8.57;100.00
19777;BME280;10047;42.490;26.012;2022-12-07T01:27:13;99947.34;;;8.23;100.00
19777;BME280;10047;42.490;26.012;2022-12-07T01:29:38;100012.25;;;8.73;100.00
19777;BME280;10047;42.490;26.012;2022-12-07T01:32:04;99951.56;;;8.23;100.00
19777;BME280;10047;42.490;26.012;2022-12-07T01:34:30;100025.84;;;8.69;100.00
19777;BME280;10047;42.490;26.012;2022-12-07T01:36:55;99951.56;;;8.23;100.00
19777;BME280;10047;42.490;26.012;2022-12-07T01:39:20;100029.97;;;8.74;100.00
19777;BME280;10047;42.490;26.012;2022-12-07T01:41:46;100028.94;;;8.83;100.00
19777;BME280;10047;42.490;26.012;2022-12-07T01:46:42;100026.53;;;8.75;100.00
19777;BME280;10047;42.490;26.012;2022-12-07T01:49:12;100025.59;;;8.81;100.00
19777;BME280;10047;42.490;26.012;2022-12-07T01:51:40;99952.94;;;8.40;100.00
19777;BME280;10047;42.490;26.012;2022-12-07T01:54:08;99986.41;;;8.56;100.00
19777;BME280;10047;42.490;26.012;2022-12-07T01:56:36;100017.19;;;8.79;100.00
19777;BME280;10047;42.490;26.012;2022-12-07T01:59:03;99943.97;;;8.26;100.00
19777;BME280;10047;42.490;26.012;2022-12-07T02:01:28;99993.03;;;8.63;100.00
19777;BME280;10047;42.490;26.012;2022-12-07T02:03:54;99932.75;;;8.37;100.00
19777;BME280;10047;42.490;26.012;2022-12-07T02:06:23;100007.19;;;8.71;100.00
19777;BME280;10047;42.490;26.012;2022-12-07T02:08:49;99872.81;;;7.94;100.00
19777;BME280;10047;42.490;26.012;2022-12-07T02:11:15;99925.47;;;8.19;100.00
19777;BME280;10047;42.490;26.012;2022-12-07T02:13:42;100014.72;;;8.76;100.00
19777;BME280;10047;42.490;26.012;2022-12-07T02:22:05;100007.34;;;8.65;100.00
19777;BME280;10047;42.490;26.012;2022-12-07T02:27:37;99997.06;;;8.73;100.00
19777;BME280;10047;42.490;26.012;2022-12-07T02:30:13;99995.03;;;8.89;100.00
19777;BME280;10047;42.490;26.012;2022-12-07T02:32:57;99997.69;;;8.83;100.00
19777;BME280;10047;42.490;26.012;2022-12-07T02:35:32;99996.53;;;8.57;100.00
19777;BME280;10047;42.490;26.012;2022-12-07T02:40:38;100007.06;;;8.79;100.00
19777;BME280;10047;42.490;26.012;2022-12-07T02:43:10;99953.34;;;8.62;100.00
19777;BME280;10047;42.490;26.012;2022-12-07T02:45:39;99988.75;;;8.65;100.00
19777;BME280;10047;42.490;26.012;2022-12-07T02:48:07;99933.81;;;8.24;100.00
19777;BME280;10047;42.490;26.012;2022-12-07T02:50:34;99997.09;;;8.70;100.00
19777;BME280;10047;42.490;26.012;2022-12-07T02:53:00;99906.66;;;8.32;100.00
19777;BME280;10047;42.490;26.012;2022-12-07T02:55:32;99948.38;;;8.56;100.00
19777;BME280;10047;42.490;26.012;2022-12-07T03:00:54;99969.34;;;8.65;100.00
19777;BME280;10047;42.490;26.012;2022-12-07T03:03:24;99839.19;;;7.87;100.00
19777;BME280;10047;42.490;26.012;2022-12-07T03:06:08;99912.44;;;8.39;100.00
19777;BME280;10047;42.490;26.012;2022-12-07T03:11:14;99925.88;;;8.42;100.00
19777;BME280;10047;42.490;26.012;2022-12-07T03:14:02;99880.22;;;8.04;100.00
19777;BME280;10047;42.490;26.012;2022-12-07T03:16:53;99967.63;;;8.66;100.00
19777;BME280;10047;42.490;26.012;2022-12-07T03:19:24;99987.63;;;8.78;100.00
19777;BME280;10047;42.490;26.012;2022-12-07T03:22:00;99973.19;;;8.40;100.00
19777;BME280;10047;42.490;26.012;2022-12-07T03:24:35;99999.09;;;8.54;100.00
19777;BME280;10047;42.490;26.012;2022-12-07T03:27:09;99995.81;;;8.51;100.00
19777;BME280;10047;42.490;26.012;2022-12-07T03:29:41;99988.25;;;8.49;100.00
19777;BME280;10047;42.490;26.012;2022-12-07T03:34:47;99924.50;;;8.26;100.00
19777;BME280;10047;42.490;26.012;2022-12-07T03:37:23;99988.00;;;8.61;100.00
19777;BME280;10047;42.490;26.012;2022-12-07T03:42:32;99987.13;;;8.62;100.00
19777;BME280;10047;42.490;26.012;2022-12-07T03:44:59;99975.28;;;8.63;100.00
19777;BME280;10047;42.490;26.012;2022-12-07T03:48:29;99990.78;;;8.48;100.00
19777;BME280;10047;42.490;26.012;2022-12-07T03:53:25;99981.25;;;8.60;100.00
19777;BME280;10047;42.490;26.012;2022-12-07T03:55:54;99970.34;;;8.57;100.00
19777;BME280;10047;42.490;26.012;2022-12-07T03:58:21;99956.69;;;8.18;100.00
19777;BME280;10047;42.490;26.012;2022-12-07T04:00:49;99882.97;;;7.90;100.00
19777;BME280;10047;42.490;26.012;2022-12-07T04:03:15;99832.81;;;7.68;100.00
19777;BME280;10047;42.490;26.012;2022-12-07T04:05:40;99898.66;;;8.09;100.00
19777;BME280;10047;42.490;26.012;2022-12-07T04:08:06;99966.31;;;8.47;100.00
19777;BME280;10047;42.490;26.012;2022-12-07T04:10:31;99944.69;;;8.31;100.00
19777;BME280;10047;42.490;26.012;2022-12-07T04:12:57;99888.66;;;8.03;100.00
19777;BME280;10047;42.490;26.012;2022-12-07T04:15:22;99823.63;;;7.64;100.00
19777;BME280;10047;42.490;26.012;2022-12-07T04:17:48;99885.38;;;7.98;100.00
19777;BME280;10047;42.490;26.012;2022-12-07T04:20:13;99963.94;;;8.38;100.00
19777;BME280;10047;42.490;26.012;2022-12-07T04:22:39;99965.47;;;8.46;100.00
19777;BME280;10047;42.490;26.012;2022-12-07T04:25:05;99878.66;;;7.97;100.00
19777;BME280;10047;42.490;26.012;2022-12-07T04:27:30;99928.75;;;8.24;100.00
19777;BME280;10047;42.490;26.012;2022-12-07T04:29:56;99902.06;;;8.07;100.00
19777;BME280;10047;42.490;26.012;2022-12-07T04:32:22;99957.88;;;8.46;100.00
19777;BME280;10047;42.490;26.012;2022-12-07T04:34:48;99962.88;;;9.27;100.00
19777;BME280;10047;42.490;26.012;2022-12-07T04:37:13;99874.94;;;8.93;100.00
19777;BME280;10047;42.490;26.012;2022-12-07T04:39:39;99946.28;;;8.76;100.00
19777;BME280;10047;42.490;26.012;2022-12-07T04:42:04;99980.34;;;8.63;100.00
19777;BME280;10047;42.490;26.012;2022-12-07T04:44:30;99892.72;;;8.10;100.00
19777;BME280;10047;42.490;26.012;2022-12-07T04:46:56;99974.66;;;8.52;100.00
19777;BME280;10047;42.490;26.012;2022-12-07T04:49:23;99901.81;;;8.20;100.00
19777;BME280;10047;42.490;26.012;2022-12-07T04:51:48;99965.31;;;8.55;100.00
19777;BME280;10047;42.490;26.012;2022-12-07T04:54:15;99912.84;;;8.16;100.00
19777;BME280;10047;42.490;26.012;2022-12-07T04:56:40;99974.66;;;8.52;100.00
19777;BME280;10047;42.490;26.012;2022-12-07T04:59:06;99958.81;;;8.42;100.00
19777;BME280;10047;42.490;26.012;2022-12-07T05:01:32;99970.50;;;8.48;100.00
19777;BME280;10047;42.490;26.012;2022-12-07T05:03:58;99899.50;;;8.08;100.00
19777;BME280;10047;42.490;26.012;2022-12-07T05:06:23;99909.66;;;8.07;100.00
19777;BME280;10047;42.490;26.012;2022-12-07T05:08:49;99878.66;;;7.97;100.00
19777;BME280;10047;42.490;26.012;2022-12-07T05:11:15;99912.13;;;8.11;100.00
19777;BME280;10047;42.490;26.012;2022-12-07T05:13:58;99902.13;;;8.05;100.00
19777;BME280;10047;42.490;26.012;2022-12-07T05:16:24;99967.97;;;8.49;100.00
19777;BME280;10047;42.490;26.012;2022-12-07T05:18:50;99975.19;;;8.25;100.00
19777;BME280;10047;42.490;26.012;2022-12-07T05:21:15;99968.56;;;8.16;100.00
19777;BME280;10047;42.490;26.012;2022-12-07T05:23:41;99873.06;;;7.80;100.00
19777;BME280;10047;42.490;26.012;2022-12-07T05:26:06;99902.41;;;7.90;100.00
19777;BME280;10047;42.490;26.012;2022-12-07T05:28:31;99951.53;;;8.24;100.00
19777;BME280;10047;42.490;26.012;2022-12-07T05:30:57;99972.59;;;8.29;100.00
19777;BME280;10047;42.490;26.012;2022-12-07T05:33:22;99957.47;;;8.23;100.00
19777;BME280;10047;42.490;26.012;2022-12-07T05:35:48;99937.38;;;8.14;100.00
19777;BME280;10047;42.490;26.012;2022-12-07T05:38:13;99980.31;;;8.20;100.00
19777;BME280;10047;42.490;26.012;2022-12-07T05:40:38;99865.72;;;7.68;100.00
19777;BME280;10047;42.490;26.012;2022-12-07T05:43:04;99884.34;;;7.64;100.00
19777;BME280;10047;42.490;26.012;2022-12-07T05:45:29;99945.91;;;8.54;100.00
19777;BME280;10047;42.490;26.012;2022-12-07T05:47:55;99901.06;;;7.72;100.00
19777;BME280;10047;42.490;26.012;2022-12-07T05:50:20;99884.41;;;7.59;100.00
19777;BME280;10047;42.490;26.012;2022-12-07T05:52:46;99961.31;;;7.98;100.00
19777;BME280;10047;42.490;26.012;2022-12-07T05:55:11;99952.25;;;7.85;100.00
19777;BME280;10047;42.490;26.012;2022-12-07T05:57:36;99948.03;;;7.85;100.00
19777;BME280;10047;42.490;26.012;2022-12-07T06:00:03;99897.22;;;7.50;100.00
19777;BME280;10047;42.490;26.012;2022-12-07T06:02:29;99881.28;;;7.45;100.00
19777;BME280;10047;42.490;26.012;2022-12-07T06:04:54;99827.78;;;7.19;100.00
19777;BME280;10047;42.490;26.012;2022-12-07T06:07:20;99882.66;;;7.63;100.00
19777;BME280;10047;42.490;26.012;2022-12-07T06:09:45;99925.22;;;7.87;100.00
19777;BME280;10047;42.490;26.012;2022-12-07T06:12:11;99930.03;;;8.02;100.00
19777;BME280;10047;42.490;26.012;2022-12-07T06:14:56;99971.91;;;8.20;100.00
19777;BME280;10047;42.490;26.012;2022-12-07T06:17:22;99858.00;;;7.74;100.00
19777;BME280;10047;42.490;26.012;2022-12-07T06:19:48;99897.69;;;7.72;100.00
19777;BME280;10047;42.490;26.012;2022-12-07T06:22:13;99967.59;;;8.23;100.00
19777;BME280;10047;42.490;26.012;2022-12-07T06:24:39;99885.88;;;7.71;100.00
19777;BME280;10047;42.490;26.012;2022-12-07T06:27:05;99961.69;;;8.23;100.00
19777;BME280;10047;42.490;26.012;2022-12-07T06:29:31;99983.75;;;8.16;100.00
19777;BME280;10047;42.490;26.012;2022-12-07T06:31:56;99874.81;;;7.78;100.00
19777;BME280;10047;42.490;26.012;2022-12-07T06:34:23;99974.69;;;8.50;100.00
19777;BME280;10047;42.490;26.012;2022-12-07T06:36:49;99975.44;;;8.55;100.00
19777;BME280;10047;42.490;26.012;2022-12-07T06:39:21;99902.13;;;8.05;100.00
19777;BME280;10047;42.490;26.012;2022-12-07T06:41:48;99971.47;;;8.42;100.00
19777;BME280;10047;42.490;26.012;2022-12-07T06:44:14;99892.06;;;8.02;100.00
19777;BME280;10047;42.490;26.012;2022-12-07T06:46:39;99969.50;;;8.56;100.00
19777;BME280;10047;42.490;26.012;2022-12-07T06:49:05;99888.41;;;8.15;100.00
19777;BME280;10047;42.490;26.012;2022-12-07T06:51:32;99890.16;;;8.13;100.00
19777;BME280;10047;42.490;26.012;2022-12-07T06:53:57;99893.09;;;7.90;100.00
19777;BME280;10047;42.490;26.012;2022-12-07T06:56:23;99966.25;;;8.51;100.00
19777;BME280;10047;42.490;26.012;2022-12-07T06:58:48;99961.97;;;8.53;100.00
19777;BME280;10047;42.490;26.012;2022-12-07T07:01:16;99901.72;;;8.26;100.00
19777;BME280;10047;42.490;26.012;2022-12-07T07:03:42;99888.94;;;8.32;100.00
19777;BME280;10047;42.490;26.012;2022-12-07T07:06:08;99884.16;;;8.17;100.00
19777;BME280;10047;42.490;26.012;2022-12-07T07:08:34;99921.84;;;8.34;100.00
19777;BME280;10047;42.490;26.012;2022-12-07T07:11:00;99960.94;;;8.63;100.00
19777;BME280;10047;42.490;26.012;2022-12-07T07:13:26;99944.94;;;8.60;100.00
19777;BME280;10047;42.490;26.012;2022-12-07T07:15:52;99971.72;;;8.71;100.00
19777;BME280;10047;42.490;26.012;2022-12-07T07:18:18;99891.59;;;8.26;100.00
19777;BME280;10047;42.490;26.012;2022-12-07T07:20:43;99957.56;;;8.63;100.00
19777;BME280;10047;42.490;26.012;2022-12-07T07:23:09;99964.06;;;8.74;100.00
19777;BME280;10047;42.490;26.012;2022-12-07T07:25:34;99972.66;;;8.67;100.00
19777;BME280;10047;42.490;26.012;2022-12-07T07:28:00;99975.72;;;8.82;100.00
19777;BME280;10047;42.490;26.012;2022-12-07T07:30:26;99971.19;;;8.97;100.00
19777;BME280;10047;42.490;26.012;2022-12-07T07:32:51;99905.94;;;8.24;100.00
19777;BME280;10047;42.490;26.012;2022-12-07T07:35:20;99976.41;;;8.91;100.00
19777;BME280;10047;42.490;26.012;2022-12-07T07:37:46;99988.53;;;8.77;100.00
19777;BME280;10047;42.490;26.012;2022-12-07T07:40:11;99989.69;;;9.01;100.00
19777;BME280;10047;42.490;26.012;2022-12-07T07:42:37;99909.13;;;8.37;100.00
19777;BME280;10047;42.490;26.012;2022-12-07T07:45:03;99991.06;;;9.15;100.00
19777;BME280;10047;42.490;26.012;2022-12-07T07:47:29;99990.34;;;9.10;100.00
19777;BME280;10047;42.490;26.012;2022-12-07T07:49:54;99845.22;;;8.23;100.00
19777;BME280;10047;42.490;26.012;2022-12-07T07:52:19;99900.13;;;8.63;100.00
19777;BME280;10047;42.490;26.012;2022-12-07T07:54:45;99936.66;;;8.53;100.00
19777;BME280;10047;42.490;26.012;2022-12-07T07:57:10;99990.63;;;8.97;100.00
19777;BME280;10047;42.490;26.012;2022-12-07T07:59:36;99900.50;;;8.45;100.00
19777;BME280;10047;42.490;26.012;2022-12-07T08:02:02;99920.88;;;8.79;100.00
19777;BME280;10047;42.490;26.012;2022-12-07T08:04:27;100005.16;;;9.28;100.00
19777;BME280;10047;42.490;26.012;2022-12-07T08:06:52;100011.28;;;9.55;100.00
19777;BME280;10047;42.490;26.012;2022-12-07T08:09:18;99944.78;;;9.41;100.00
19777;BME280;10047;42.490;26.012;2022-12-07T08:11:43;100015.59;;;9.15;100.00
19777;BME280;10047;42.490;26.012;2022-12-07T08:14:11;100021.44;;;9.55;100.00
19777;BME280;10047;42.490;26.012;2022-12-07T08:16:37;99931.97;;;9.12;100.00
19777;BME280;10047;42.490;26.012;2022-12-07T08:19:04;100018.50;;;9.35;100.00
19777;BME280;10047;42.490;26.012;2022-12-07T08:21:29;99957.00;;;9.27;100.00
19777;BME280;10047;42.490;26.012;2022-12-07T08:23:56;99999.09;;;9.69;100.00
19777;BME280;10047;42.490;26.012;2022-12-07T08:26:22;100008.41;;;9.69;100.00
19777;BME280;10047;42.490;26.012;2022-12-07T08:28:47;100013.09;;;9.50;100.00
19777;BME280;10047;42.490;26.012;2022-12-07T08:31:16;100018.09;;;9.88;100.00
19777;BME280;10047;42.490;26.012;2022-12-07T08:33:45;100009.09;;;10.09;100.00
19777;BME280;10047;42.490;26.012;2022-12-07T08:36:12;99984.16;;;9.58;100.00
19777;BME280;10047;42.490;26.012;2022-12-07T08:38:39;99953.06;;;9.49;100.00
19777;BME280;10047;42.490;26.012;2022-12-07T08:41:06;99945.78;;;9.69;100.00
19777;BME280;10047;42.490;26.012;2022-12-07T08:43:32;99918.72;;;9.70;100.00
19777;BME280;10047;42.490;26.012;2022-12-07T08:46:06;100015.09;;;10.06;100.00
19777;BME280;10047;42.490;26.012;2022-12-07T08:48:33;100011.19;;;9.93;100.00
19777;BME280;10047;42.490;26.012;2022-12-07T08:51:01;100015.13;;;10.05;100.00
19777;BME280;10047;42.490;26.012;2022-12-07T08:53:27;100021.16;;;9.67;100.00
19777;BME280;10047;42.490;26.012;2022-12-07T08:55:53;100007.91;;;10.23;100.00
19777;BME280;10047;42.490;26.012;2022-12-07T08:58:19;99966.25;;;9.97;100.00
19777;BME280;10047;42.490;26.012;2022-12-07T09:00:44;99993.50;;;9.90;100.00
19777;BME280;10047;42.490;26.012;2022-12-07T09:03:09;100007.72;;;10.31;100.00
19777;BME280;10047;42.490;26.012;2022-12-07T09:05:35;99881.38;;;9.41;100.00
19777;BME280;10047;42.490;26.012;2022-12-07T09:08:01;99954.84;;;9.79;100.00
19777;BME280;10047;42.490;26.012;2022-12-07T09:10:28;99959.56;;;10.26;100.00
19777;BME280;10047;42.490;26.012;2022-12-07T09:12:53;100045.81;;;10.63;100.00
19777;BME280;10047;42.490;26.012;2022-12-07T09:15:19;99955.41;;;10.24;100.00
19777;BME280;10047;42.490;26.012;2022-12-07T09:17:44;99960.16;;;10.04;100.00
19777;BME280;10047;42.490;26.012;2022-12-07T09:20:10;100018.47;;;10.71;100.00
19777;BME280;10047;42.490;26.012;2022-12-07T09:22:35;100027.34;;;10.57;100.00
19777;BME280;10047;42.490;26.012;2022-12-07T09:25:02;100010.84;;;10.40;100.00
19777;BME280;10047;42.490;26.012;2022-12-07T09:27:28;100024.59;;;10.32;100.00
19777;BME280;10047;42.490;26.012;2022-12-07T09:29:54;100049.00;;;10.70;100.00
19777;BME280;10047;42.490;26.012;2022-12-07T09:32:19;99949.78;;;10.43;100.00
19777;BME280;10047;42.490;26.012;2022-12-07T09:34:45;100025.66;;;10.86;100.00
19777;BME280;10047;42.490;26.012;2022-12-07T09:37:10;100031.69;;;10.53;100.00
19777;BME280;10047;42.490;26.012;2022-12-07T09:39:40;100028.25;;;10.85;100.00
19777;BME280;10047;42.490;26.012;2022-12-07T09:42:06;100016.72;;;11.02;100.00
19777;BME280;10047;42.490;26.012;2022-12-07T09:44:33;99953.91;;;10.48;100.00
19777;BME280;10047;42.490;26.012;2022-12-07T09:46:59;100019.19;;;11.04;100.00
19777;BME280;10047;42.490;26.012;2022-12-07T09:49:29;100009.66;;;10.83;100.00
19777;BME280;10047;42.490;26.012;2022-12-07T09:52:16;99998.59;;;10.84;100.00
19777;BME280;10047;42.490;26.012;2022-12-07T09:54:47;100035.72;;;10.91;100.00
19777;BME280;10047;42.490;26.012;2022-12-07T09:57:13;99948.16;;;10.09;100.00
19777;BME280;10047;42.490;26.012;2022-12-07T09:59:39;100010.28;;;10.62;100.00
19777;BME280;10047;42.490;26.012;2022-12-07T10:04:49;99926.56;;;11.11;100.00
19777;BME280;10047;42.490;26.012;2022-12-07T10:07:14;100008.41;;;11.53;100.00
19777;BME280;10047;42.490;26.012;2022-12-07T10:09:40;100020.06;;;11.32;100.00
19777;BME280;10047;42.490;26.012;2022-12-07T10:12:10;100017.56;;;11.30;100.00
19777;BME280;10047;42.490;26.012;2022-12-07T10:14:40;99933.75;;;10.98;100.00
19777;BME280;10047;42.490;26.012;2022-12-07T10:17:31;99997.06;;;11.61;100.00
19777;BME280;10047;42.490;26.012;2022-12-07T10:20:19;99930.69;;;10.58;100.00
19777;BME280;10047;42.490;26.012;2022-12-07T10:25:27;99982.69;;;11.06;100.00
19777;BME280;10047;42.490;26.012;2022-12-07T10:28:13;99977.50;;;10.51;100.00
19777;BME280;10047;42.490;26.012;2022-12-07T10:30:55;100007.97;;;10.83;100.00
19777;BME280;10047;42.490;26.012;2022-12-07T10:33:36;99930.22;;;10.75;100.00
19777;BME280;10047;42.490;26.012;2022-12-07T10:41:52;99960.84;;;11.79;100.00
19777;BME280;10047;42.490;26.012;2022-12-07T10:44:21;99927.63;;;11.04;100.00
19777;BME280;10047;42.490;26.012;2022-12-07T10:54:58;99982.75;;;11.31;100.00
19777;BME280;10047;42.490;26.012;2022-12-07T11:00:22;99882.38;;;11.13;100.00
19777;BME280;10047;42.490;26.012;2022-12-07T11:08:21;99970.25;;;11.23;100.00
19777;BME280;10047;42.490;26.012;2022-12-07T11:19:05;99957.38;;;11.82;100.00
19777;BME280;10047;42.490;26.012;2022-12-07T11:21:55;99968.91;;;11.40;100.00
19777;BME280;10047;42.490;26.012;2022-12-07T11:37:59;99939.84;;;11.97;100.00
19777;BME280;10047;42.490;26.012;2022-12-07T11:40:30;99896.81;;;11.90;100.00
19777;BME280;10047;42.490;26.012;2022-12-07T11:45:54;99960.81;;;12.05;100.00
19777;BME280;10047;42.490;26.012;2022-12-07T11:48:33;99947.75;;;11.90;100.00
19777;BME280;10047;42.490;26.012;2022-12-07T11:51:00;99869.38;;;11.73;100.00
19777;BME280;10047;42.490;26.012;2022-12-07T11:53:33;99848.16;;;11.73;100.00
19777;BME280;10047;42.490;26.012;2022-12-07T12:01:39;99941.06;;;12.35;100.00
19777;BME280;10047;42.490;26.012;2022-12-07T12:06:41;99925.59;;;12.16;100.00
19777;BME280;10047;42.490;26.012;2022-12-07T12:12:01;99942.03;;;11.83;100.00
19777;BME280;10047;42.490;26.012;2022-12-07T12:20:14;99924.56;;;11.47;100.00
19777;BME280;10047;42.490;26.012;2022-12-07T12:25:45;99902.00;;;11.62;100.00
19777;BME280;10047;42.490;26.012;2022-12-07T12:28:38;99878.50;;;11.54;100.00
19777;BME280;10047;42.490;26.012;2022-12-07T12:31:12;99901.03;;;11.66;100.00
19777;BME280;10047;42.490;26.012;2022-12-07T12:33:44;99893.78;;;11.54;100.00
19777;BME280;10047;42.490;26.012;2022-12-07T12:36:44;99888.25;;;11.42;100.00
19777;BME280;10047;42.490;26.012;2022-12-07T12:39:13;99805.53;;;11.04;100.00
19777;BME280;10047;42.490;26.012;2022-12-07T12:46:48;99892.72;;;11.60;100.00
19777;BME280;10047;42.490;26.012;2022-12-07T12:51:56;99892.84;;;11.57;100.00
19777;BME280;10047;42.490;26.012;2022-12-07T12:54:29;99890.75;;;11.92;100.00
19777;BME280;10047;42.490;26.012;2022-12-07T12:57:18;99885.44;;;11.49;100.00
19777;BME280;10047;42.490;26.012;2022-12-07T13:02:31;99886.00;;;11.57;100.00
19777;BME280;10047;42.490;26.012;2022-12-07T13:10:30;99862.22;;;11.58;100.00
19777;BME280;10047;42.490;26.012;2022-12-07T13:15:44;99832.91;;;10.96;100.00
19777;BME280;10047;42.490;26.012;2022-12-07T13:23:21;99875.13;;;11.27;100.00
19777;BME280;10047;42.490;26.012;2022-12-07T13:26:00;99902.69;;;11.15;100.00
19777;BME280;10047;42.490;26.012;2022-12-07T13:28:33;99791.28;;;10.46;100.00
19777;BME280;10047;42.490;26.012;2022-12-07T13:33:30;99743.97;;;10.14;100.00
19777;BME280;10047;42.490;26.012;2022-12-07T13:35:56;99876.50;;;11.11;100.00
19777;BME280;10047;42.490;26.012;2022-12-07T13:38:28;99861.44;;;11.05;100.00
19777;BME280;10047;42.490;26.012;2022-12-07T13:41:21;99862.59;;;11.23;100.00
19777;BME280;10047;42.490;26.012;2022-12-07T13:44:00;99865.72;;;11.05;100.00
19777;BME280;10047;42.490;26.012;2022-12-07T13:46:55;99872.03;;;10.92;100.00
19777;BME280;10047;42.490;26.012;2022-12-07T13:49:27;99867.59;;;10.98;100.00
19777;BME280;10047;42.490;26.012;2022-12-07T13:51:54;99780.09;;;10.52;100.00
19777;BME280;10047;42.490;26.012;2022-12-07T13:54:20;99840.59;;;10.94;100.00
19777;BME280;10047;42.490;26.012;2022-12-07T13:56:52;99853.25;;;10.96;100.00
19777;BME280;10047;42.490;26.012;2022-12-07T13:59:21;99785.81;;;10.58;100.00
19777;BME280;10047;42.490;26.012;2022-12-07T14:01:48;99817.38;;;10.79;100.00
19777;BME280;10047;42.490;26.012;2022-12-07T14:06:59;99857.41;;;10.72;100.00
19777;BME280;10047;42.490;26.012;2022-12-07T14:09:27;99788.19;;;10.36;100.00
19777;BME280;10047;42.490;26.012;2022-12-07T14:11:55;99784.00;;;10.34;100.00
19777;BME280;10047;42.490;26.012;2022-12-07T14:14:29;99866.88;;;10.95;100.00
19777;BME280;10047;42.490;26.012;2022-12-07T14:17:11;99801.00;;;10.32;100.00
19777;BME280;10047;42.490;26.012;2022-12-07T14:22:08;99823.44;;;10.47;100.00
19777;BME280;10047;42.490;26.012;2022-12-07T14:24:43;99781.47;;;10.34;100.00
19777;BME280;10047;42.490;26.012;2022-12-07T14:27:21;99764.94;;;10.21;100.00
19777;BME280;10047;42.490;26.012;2022-12-07T14:29:46;99851.28;;;10.52;100.00
19777;BME280;10047;42.490;26.012;2022-12-07T14:32:25;99811.41;;;10.24;100.00
19777;BME280;10047;42.490;26.012;2022-12-07T14:34:59;99864.16;;;10.73;100.00
19777;BME280;10047;42.490;26.012;2022-12-07T14:37:24;99722.31;;;9.74;100.00
19777;BME280;10047;42.490;26.012;2022-12-07T14:39:51;99827.22;;;10.34;100.00
19777;BME280;10047;42.490;26.012;2022-12-07T14:42:17;99850.50;;;10.50;100.00
19777;BME280;10047;42.490;26.012;2022-12-07T14:44:43;99863.19;;;10.50;100.00
19777;BME280;10047;42.490;26.012;2022-12-07T14:47:11;99786.97;;;9.91;100.00
19777;BME280;10047;42.490;26.012;2022-12-07T14:49:37;99768.50;;;9.86;100.00
19777;BME280;10047;42.490;26.012;2022-12-07T14:52:03;99772.50;;;9.93;100.00
19777;BME280;10047;42.490;26.012;2022-12-07T14:54:31;99777.47;;;9.98;100.00
19777;BME280;10047;42.490;26.012;2022-12-07T14:56:57;99802.75;;;10.01;100.00
19777;BME280;10047;42.490;26.012;2022-12-07T14:59:22;99813.94;;;9.95;100.00
19777;BME280;10047;42.490;26.012;2022-12-07T15:01:48;99852.22;;;10.18;100.00
19777;BME280;10047;42.490;26.012;2022-12-07T15:04:13;99832.91;;;10.13;100.00